Adel, Iowa
Current Conditions -  °F | °C
As of 6:55 AM on Wednesday 26 Nov 2014 (Local Time) from KPRO Reporting Station
Light Snow Light Snow  
Wind Chill: -7°   Ceiling: 500
Heat Index: -1°   Visibility: 5mi
Dew Point: -1°   Wind: 13mph
Humidity: 100%   Direction: 100°E
Pressure: 29.86"   Gusts: NA
Location:  41.61°N, 94.02°W
Report Text: KPRO 261255Z AUTO 10011KT 5SM -SN OVC005 M01/M01 A2986 RMK AO2 T10101010
Loading
Personal Weather Stations






























Interactive Weather Map New forecast layout! Learn more

10-Day Weather Forecast

Advertisements
Track Severe Weather on mobile